sensor_id;sensor_type;location;lat;lon;timestamp;P1;durP1;ratioP1;P2;durP2;ratioP2
40433;SDS011;26146;51.114;5.654;2022-07-18T00:01:00;5.10;;;1.13;;
40433;SDS011;26146;51.114;5.654;2022-07-18T00:05:01;7.07;;;1.30;;
40433;SDS011;26146;51.114;5.654;2022-07-18T00:09:03;7.05;;;1.20;;
40433;SDS011;26146;51.114;5.654;2022-07-18T00:13:04;5.45;;;1.30;;
40433;SDS011;26146;51.114;5.654;2022-07-18T00:17:05;6.38;;;1.20;;
40433;SDS011;26146;51.114;5.654;2022-07-18T00:21:07;5.82;;;1.15;;
40433;SDS011;26146;51.114;5.654;2022-07-18T00:25:11;5.28;;;1.13;;
40433;SDS011;26146;51.114;5.654;2022-07-18T00:29:12;5.05;;;1.20;;
40433;SDS011;26146;51.114;5.654;2022-07-18T00:33:13;5.10;;;1.20;;
40433;SDS011;26146;51.114;5.654;2022-07-18T00:37:13;5.57;;;1.40;;
40433;SDS011;26146;51.114;5.654;2022-07-18T00:41:15;5.57;;;1.23;;
40433;SDS011;26146;51.114;5.654;2022-07-18T00:45:16;6.25;;;1.30;;
40433;SDS011;26146;51.114;5.654;2022-07-18T00:49:17;6.57;;;1.33;;
40433;SDS011;26146;51.114;5.654;2022-07-18T00:53:18;4.68;;;1.27;;
40433;SDS011;26146;51.114;5.654;2022-07-18T00:57:19;5.35;;;1.30;;
40433;SDS011;26146;51.114;5.654;2022-07-18T01:01:20;6.35;;;1.40;;
40433;SDS011;26146;51.114;5.654;2022-07-18T01:05:40;7.32;;;1.48;;
40433;SDS011;26146;51.114;5.654;2022-07-18T01:09:41;6.72;;;1.38;;
40433;SDS011;26146;51.114;5.654;2022-07-18T01:13:42;5.80;;;1.42;;
40433;SDS011;26146;51.114;5.654;2022-07-18T01:17:43;5.28;;;1.40;;
40433;SDS011;26146;51.114;5.654;2022-07-18T01:21:44;7.60;;;1.60;;
40433;SDS011;26146;51.114;5.654;2022-07-18T01:25:45;6.10;;;1.55;;
40433;SDS011;26146;51.114;5.654;2022-07-18T01:29:46;8.30;;;1.50;;
40433;SDS011;26146;51.114;5.654;2022-07-18T01:33:49;8.23;;;1.60;;
40433;SDS011;26146;51.114;5.654;2022-07-18T01:37:51;7.18;;;1.50;;
40433;SDS011;26146;51.114;5.654;2022-07-18T01:41:59;6.82;;;1.55;;
40433;SDS011;26146;51.114;5.654;2022-07-18T01:46:03;7.70;;;1.50;;
40433;SDS011;26146;51.114;5.654;2022-07-18T01:50:04;7.63;;;1.50;;
40433;SDS011;26146;51.114;5.654;2022-07-18T01:54:05;6.28;;;1.63;;
40433;SDS011;26146;51.114;5.654;2022-07-18T01:58:06;6.25;;;1.65;;
40433;SDS011;26146;51.114;5.654;2022-07-18T02:02:07;5.97;;;1.80;;
40433;SDS011;26146;51.114;5.654;2022-07-18T02:06:08;6.13;;;1.58;;
40433;SDS011;26146;51.114;5.654;2022-07-18T02:10:13;5.97;;;1.63;;
40433;SDS011;26146;51.114;5.654;2022-07-18T02:14:18;6.93;;;1.95;;
40433;SDS011;26146;51.114;5.654;2022-07-18T02:18:19;7.45;;;1.70;;
40433;SDS011;26146;51.114;5.654;2022-07-18T02:22:20;5.93;;;1.77;;
40433;SDS011;26146;51.114;5.654;2022-07-18T02:26:21;6.55;;;1.85;;
40433;SDS011;26146;51.114;5.654;2022-07-18T02:30:22;6.97;;;1.83;;
40433;SDS011;26146;51.114;5.654;2022-07-18T02:34:23;9.70;;;1.80;;
40433;SDS011;26146;51.114;5.654;2022-07-18T02:38:24;9.15;;;1.85;;
40433;SDS011;26146;51.114;5.654;2022-07-18T02:42:25;6.43;;;1.70;;
40433;SDS011;26146;51.114;5.654;2022-07-18T02:46:26;6.35;;;1.77;;
40433;SDS011;26146;51.114;5.654;2022-07-18T02:50:27;6.82;;;2.00;;
40433;SDS011;26146;51.114;5.654;2022-07-18T02:54:29;9.20;;;1.80;;
40433;SDS011;26146;51.114;5.654;2022-07-18T02:58:31;7.65;;;1.70;;
40433;SDS011;26146;51.114;5.654;2022-07-18T03:02:32;6.93;;;1.92;;
40433;SDS011;26146;51.114;5.654;2022-07-18T03:06:33;7.97;;;2.10;;
40433;SDS011;26146;51.114;5.654;2022-07-18T03:10:37;7.88;;;2.05;;
40433;SDS011;26146;51.114;5.654;2022-07-18T03:14:38;6.40;;;1.92;;
40433;SDS011;26146;51.114;5.654;2022-07-18T03:18:39;6.05;;;1.80;;
40433;SDS011;26146;51.114;5.654;2022-07-18T03:22:40;7.05;;;1.95;;
40433;SDS011;26146;51.114;5.654;2022-07-18T03:26:41;6.97;;;2.00;;
40433;SDS011;26146;51.114;5.654;2022-07-18T03:30:42;7.95;;;1.95;;
40433;SDS011;26146;51.114;5.654;2022-07-18T03:34:43;6.80;;;2.05;;
40433;SDS011;26146;51.114;5.654;2022-07-18T03:38:44;8.05;;;1.90;;
40433;SDS011;26146;51.114;5.654;2022-07-18T03:42:45;7.18;;;2.13;;
40433;SDS011;26146;51.114;5.654;2022-07-18T03:46:46;6.70;;;1.80;;
40433;SDS011;26146;51.114;5.654;2022-07-18T03:50:47;6.43;;;1.85;;
40433;SDS011;26146;51.114;5.654;2022-07-18T03:54:48;6.35;;;1.98;;
40433;SDS011;26146;51.114;5.654;2022-07-18T03:58:49;6.47;;;1.77;;
40433;SDS011;26146;51.114;5.654;2022-07-18T04:02:50;8.40;;;2.10;;
40433;SDS011;26146;51.114;5.654;2022-07-18T04:06:50;6.53;;;1.98;;
40433;SDS011;26146;51.114;5.654;2022-07-18T04:10:51;6.88;;;2.20;;
40433;SDS011;26146;51.114;5.654;2022-07-18T04:14:53;14.00;;;2.22;;
40433;SDS011;26146;51.114;5.654;2022-07-18T04:18:53;12.50;;;2.67;;
40433;SDS011;26146;51.114;5.654;2022-07-18T04:22:57;8.02;;;2.83;;
40433;SDS011;26146;51.114;5.654;2022-07-18T04:26:59;9.45;;;2.97;;
40433;SDS011;26146;51.114;5.654;2022-07-18T04:31:00;8.48;;;2.40;;
40433;SDS011;26146;51.114;5.654;2022-07-18T04:35:02;7.90;;;2.28;;
40433;SDS011;26146;51.114;5.654;2022-07-18T04:39:03;7.63;;;2.05;;
40433;SDS011;26146;51.114;5.654;2022-07-18T04:43:04;8.63;;;2.58;;
40433;SDS011;26146;51.114;5.654;2022-07-18T04:47:07;9.48;;;2.85;;
40433;SDS011;26146;51.114;5.654;2022-07-18T04:51:10;9.25;;;3.00;;
40433;SDS011;26146;51.114;5.654;2022-07-18T04:55:11;12.55;;;3.20;;
40433;SDS011;26146;51.114;5.654;2022-07-18T04:59:13;6.30;;;2.10;;
40433;SDS011;26146;51.114;5.654;2022-07-18T05:03:14;9.32;;;1.95;;
40433;SDS011;26146;51.114;5.654;2022-07-18T05:07:15;7.28;;;2.40;;
40433;SDS011;26146;51.114;5.654;2022-07-18T05:11:16;11.45;;;3.10;;
40433;SDS011;26146;51.114;5.654;2022-07-18T05:15:18;9.77;;;2.90;;
40433;SDS011;26146;51.114;5.654;2022-07-18T05:19:20;11.57;;;2.97;;
40433;SDS011;26146;51.114;5.654;2022-07-18T05:23:21;10.98;;;2.75;;
40433;SDS011;26146;51.114;5.654;2022-07-18T05:27:24;8.77;;;2.42;;
40433;SDS011;26146;51.114;5.654;2022-07-18T05:31:25;11.95;;;2.75;;
40433;SDS011;26146;51.114;5.654;2022-07-18T05:35:28;10.80;;;2.97;;
40433;SDS011;26146;51.114;5.654;2022-07-18T05:39:29;11.35;;;3.10;;
40433;SDS011;26146;51.114;5.654;2022-07-18T05:43:30;11.43;;;3.15;;
40433;SDS011;26146;51.114;5.654;2022-07-18T05:47:31;10.57;;;3.42;;
40433;SDS011;26146;51.114;5.654;2022-07-18T05:51:32;8.88;;;2.95;;
40433;SDS011;26146;51.114;5.654;2022-07-18T05:55:33;12.10;;;3.03;;
40433;SDS011;26146;51.114;5.654;2022-07-18T05:59:34;10.85;;;2.80;;
40433;SDS011;26146;51.114;5.654;2022-07-18T06:03:35;10.07;;;2.90;;
40433;SDS011;26146;51.114;5.654;2022-07-18T06:07:35;17.98;;;3.85;;
40433;SDS011;26146;51.114;5.654;2022-07-18T06:28:00;8.63;;;3.00;;
40433;SDS011;26146;51.114;5.654;2022-07-18T06:32:04;7.03;;;2.50;;
40433;SDS011;26146;51.114;5.654;2022-07-18T06:36:07;16.45;;;3.47;;
40433;SDS011;26146;51.114;5.654;2022-07-18T06:40:08;10.18;;;3.10;;
40433;SDS011;26146;51.114;5.654;2022-07-18T06:44:09;8.25;;;2.67;;
40433;SDS011;26146;51.114;5.654;2022-07-18T06:48:14;9.07;;;2.45;;
40433;SDS011;26146;51.114;5.654;2022-07-18T06:52:15;8.15;;;2.30;;
40433;SDS011;26146;51.114;5.654;2022-07-18T06:56:17;9.13;;;2.50;;
40433;SDS011;26146;51.114;5.654;2022-07-18T07:00:18;22.27;;;4.25;;
40433;SDS011;26146;51.114;5.654;2022-07-18T07:04:19;16.73;;;2.88;;
40433;SDS011;26146;51.114;5.654;2022-07-18T07:08:20;7.85;;;2.00;;
40433;SDS011;26146;51.114;5.654;2022-07-18T07:12:23;13.10;;;2.07;;
40433;SDS011;26146;51.114;5.654;2022-07-18T07:16:24;6.20;;;1.80;;
40433;SDS011;26146;51.114;5.654;2022-07-18T07:20:27;6.85;;;1.80;;
40433;SDS011;26146;51.114;5.654;2022-07-18T07:24:28;6.78;;;1.45;;
40433;SDS011;26146;51.114;5.654;2022-07-18T07:28:29;7.05;;;1.55;;
40433;SDS011;26146;51.114;5.654;2022-07-18T07:32:37;7.90;;;2.00;;
40433;SDS011;26146;51.114;5.654;2022-07-18T07:36:39;5.88;;;1.45;;
40433;SDS011;26146;51.114;5.654;2022-07-18T07:40:40;5.80;;;1.40;;
40433;SDS011;26146;51.114;5.654;2022-07-18T07:44:41;6.65;;;1.42;;
40433;SDS011;26146;51.114;5.654;2022-07-18T07:48:41;8.25;;;1.60;;
40433;SDS011;26146;51.114;5.654;2022-07-18T07:52:43;11.68;;;1.60;;
40433;SDS011;26146;51.114;5.654;2022-07-18T07:56:47;6.40;;;1.50;;
40433;SDS011;26146;51.114;5.654;2022-07-18T08:00:48;6.88;;;1.50;;
40433;SDS011;26146;51.114;5.654;2022-07-18T08:04:48;6.72;;;1.40;;
40433;SDS011;26146;51.114;5.654;2022-07-18T08:08:50;7.20;;;1.67;;
40433;SDS011;26146;51.114;5.654;2022-07-18T08:12:51;6.43;;;1.50;;
40433;SDS011;26146;51.114;5.654;2022-07-18T08:16:52;6.53;;;1.80;;
40433;SDS011;26146;51.114;5.654;2022-07-18T08:21:00;9.02;;;1.70;;
40433;SDS011;26146;51.114;5.654;2022-07-18T08:25:03;6.03;;;1.70;;
40433;SDS011;26146;51.114;5.654;2022-07-18T08:29:07;6.22;;;1.58;;
40433;SDS011;26146;51.114;5.654;2022-07-18T08:33:11;6.10;;;1.73;;
40433;SDS011;26146;51.114;5.654;2022-07-18T08:37:14;5.95;;;1.60;;
40433;SDS011;26146;51.114;5.654;2022-07-18T08:41:16;6.80;;;1.70;;
40433;SDS011;26146;51.114;5.654;2022-07-18T08:45:22;6.40;;;1.33;;
40433;SDS011;26146;51.114;5.654;2022-07-18T08:49:26;6.68;;;1.40;;
40433;SDS011;26146;51.114;5.654;2022-07-18T08:53:32;5.53;;;1.20;;
40433;SDS011;26146;51.114;5.654;2022-07-18T08:57:37;6.88;;;1.30;;
40433;SDS011;26146;51.114;5.654;2022-07-18T09:01:41;7.32;;;1.17;;
40433;SDS011;26146;51.114;5.654;2022-07-18T09:05:41;5.57;;;1.20;;
40433;SDS011;26146;51.114;5.654;2022-07-18T09:09:42;6.28;;;1.13;;
40433;SDS011;26146;51.114;5.654;2022-07-18T09:13:55;5.10;;;1.10;;
40433;SDS011;26146;51.114;5.654;2022-07-18T09:17:56;6.32;;;1.10;;
40433;SDS011;26146;51.114;5.654;2022-07-18T09:30:41;3.92;;;0.90;;
40433;SDS011;26146;51.114;5.654;2022-07-18T09:34:42;4.63;;;1.00;;
40433;SDS011;26146;51.114;5.654;2022-07-18T09:38:43;5.63;;;1.10;;
40433;SDS011;26146;51.114;5.654;2022-07-18T09:42:48;4.82;;;0.90;;
40433;SDS011;26146;51.114;5.654;2022-07-18T09:47:03;4.20;;;1.08;;
40433;SDS011;26146;51.114;5.654;2022-07-18T09:51:05;4.03;;;0.85;;
40433;SDS011;26146;51.114;5.654;2022-07-18T09:55:07;3.67;;;0.90;;
40433;SDS011;26146;51.114;5.654;2022-07-18T09:59:08;5.85;;;0.90;;
40433;SDS011;26146;51.114;5.654;2022-07-18T10:03:10;5.47;;;0.80;;
40433;SDS011;26146;51.114;5.654;2022-07-18T10:07:11;4.82;;;1.02;;
40433;SDS011;26146;51.114;5.654;2022-07-18T10:11:14;3.97;;;0.85;;
40433;SDS011;26146;51.114;5.654;2022-07-18T10:15:15;5.03;;;0.80;;
40433;SDS011;26146;51.114;5.654;2022-07-18T10:19:16;3.70;;;0.93;;
40433;SDS011;26146;51.114;5.654;2022-07-18T10:23:18;3.20;;;0.80;;
40433;SDS011;26146;51.114;5.654;2022-07-18T10:27:50;4.18;;;1.00;;
40433;SDS011;26146;51.114;5.654;2022-07-18T10:32:02;3.80;;;0.85;;
40433;SDS011;26146;51.114;5.654;2022-07-18T10:36:05;3.00;;;0.90;;
40433;SDS011;26146;51.114;5.654;2022-07-18T11:00:37;4.20;;;0.90;;
40433;SDS011;26146;51.114;5.654;2022-07-18T11:04:42;4.20;;;0.93;;
40433;SDS011;26146;51.114;5.654;2022-07-18T11:08:46;3.20;;;0.80;;
40433;SDS011;26146;51.114;5.654;2022-07-18T11:12:52;3.88;;;0.82;;
40433;SDS011;26146;51.114;5.654;2022-07-18T11:17:42;3.45;;;0.90;;
40433;SDS011;26146;51.114;5.654;2022-07-18T11:21:55;4.20;;;0.93;;
40433;SDS011;26146;51.114;5.654;2022-07-18T11:26:00;5.63;;;0.95;;
40433;SDS011;26146;51.114;5.654;2022-07-18T11:30:01;2.90;;;0.80;;
40433;SDS011;26146;51.114;5.654;2022-07-18T11:34:04;4.82;;;0.90;;
40433;SDS011;26146;51.114;5.654;2022-07-18T11:38:06;3.72;;;1.00;;
40433;SDS011;26146;51.114;5.654;2022-07-18T11:42:08;4.07;;;0.80;;
40433;SDS011;26146;51.114;5.654;2022-07-18T11:46:16;4.47;;;1.00;;
40433;SDS011;26146;51.114;5.654;2022-07-18T11:50:33;5.55;;;0.95;;
40433;SDS011;26146;51.114;5.654;2022-07-18T11:54:38;3.20;;;1.00;;
40433;SDS011;26146;51.114;5.654;2022-07-18T12:15:38;4.30;;;1.00;;
40433;SDS011;26146;51.114;5.654;2022-07-18T12:19:40;4.18;;;0.93;;
40433;SDS011;26146;51.114;5.654;2022-07-18T12:23:46;5.65;;;0.90;;
40433;SDS011;26146;51.114;5.654;2022-07-18T12:27:49;3.97;;;0.88;;
40433;SDS011;26146;51.114;5.654;2022-07-18T12:31:53;3.13;;;0.85;;
40433;SDS011;26146;51.114;5.654;2022-07-18T12:35:55;3.75;;;0.88;;
40433;SDS011;26146;51.114;5.654;2022-07-18T12:39:58;4.70;;;0.85;;
40433;SDS011;26146;51.114;5.654;2022-07-18T12:44:01;3.83;;;0.93;;
40433;SDS011;26146;51.114;5.654;2022-07-18T12:48:02;3.70;;;0.80;;
40433;SDS011;26146;51.114;5.654;2022-07-18T12:52:06;3.65;;;0.93;;
40433;SDS011;26146;51.114;5.654;2022-07-18T12:56:14;4.25;;;0.90;;
40433;SDS011;26146;51.114;5.654;2022-07-18T13:00:18;3.75;;;0.88;;
40433;SDS011;26146;51.114;5.654;2022-07-18T13:04:19;3.67;;;0.90;;
40433;SDS011;26146;51.114;5.654;2022-07-18T13:08:20;5.03;;;1.20;;
40433;SDS011;26146;51.114;5.654;2022-07-18T13:12:25;7.47;;;0.90;;
40433;SDS011;26146;51.114;5.654;2022-07-18T13:16:26;3.72;;;0.73;;
40433;SDS011;26146;51.114;5.654;2022-07-18T13:20:30;4.88;;;0.90;;
40433;SDS011;26146;51.114;5.654;2022-07-18T13:24:33;3.15;;;0.70;;
40433;SDS011;26146;51.114;5.654;2022-07-18T13:28:40;5.72;;;1.10;;
40433;SDS011;26146;51.114;5.654;2022-07-18T13:32:43;4.10;;;0.90;;
40433;SDS011;26146;51.114;5.654;2022-07-18T13:36:45;3.83;;;1.00;;
40433;SDS011;26146;51.114;5.654;2022-07-18T13:40:51;4.30;;;0.80;;
40433;SDS011;26146;51.114;5.654;2022-07-18T13:44:52;3.58;;;0.73;;
40433;SDS011;26146;51.114;5.654;2022-07-18T13:48:53;3.80;;;0.90;;
40433;SDS011;26146;51.114;5.654;2022-07-18T13:52:54;4.03;;;0.80;;
40433;SDS011;26146;51.114;5.654;2022-07-18T13:56:58;5.68;;;0.93;;
40433;SDS011;26146;51.114;5.654;2022-07-18T14:00:58;4.05;;;0.88;;
40433;SDS011;26146;51.114;5.654;2022-07-18T14:04:59;2.97;;;0.80;;
40433;SDS011;26146;51.114;5.654;2022-07-18T14:09:07;3.38;;;0.82;;
40433;SDS011;26146;51.114;5.654;2022-07-18T14:13:11;4.53;;;0.90;;
40433;SDS011;26146;51.114;5.654;2022-07-18T14:17:11;3.28;;;0.80;;
40433;SDS011;26146;51.114;5.654;2022-07-18T14:21:15;4.07;;;0.80;;
40433;SDS011;26146;51.114;5.654;2022-07-18T14:25:20;3.28;;;0.80;;
40433;SDS011;26146;51.114;5.654;2022-07-18T14:29:23;4.22;;;0.90;;
40433;SDS011;26146;51.114;5.654;2022-07-18T14:33:27;2.65;;;0.80;;
40433;SDS011;26146;51.114;5.654;2022-07-18T14:37:35;5.15;;;0.70;;
40433;SDS011;26146;51.114;5.654;2022-07-18T14:41:38;3.47;;;0.70;;
40433;SDS011;26146;51.114;5.654;2022-07-18T14:45:45;5.25;;;0.98;;
40433;SDS011;26146;51.114;5.654;2022-07-18T14:49:46;2.75;;;0.80;;
40433;SDS011;26146;51.114;5.654;2022-07-18T14:53:49;3.92;;;1.00;;
40433;SDS011;26146;51.114;5.654;2022-07-18T14:57:50;2.78;;;0.77;;
40433;SDS011;26146;51.114;5.654;2022-07-18T15:01:54;5.10;;;0.85;;
40433;SDS011;26146;51.114;5.654;2022-07-18T15:06:06;3.65;;;0.70;;
40433;SDS011;26146;51.114;5.654;2022-07-18T15:10:07;3.20;;;0.70;;
40433;SDS011;26146;51.114;5.654;2022-07-18T15:14:11;4.50;;;0.80;;
40433;SDS011;26146;51.114;5.654;2022-07-18T15:18:12;2.58;;;0.70;;
40433;SDS011;26146;51.114;5.654;2022-07-18T15:22:13;2.78;;;0.82;;
40433;SDS011;26146;51.114;5.654;2022-07-18T15:26:14;3.60;;;0.73;;
40433;SDS011;26146;51.114;5.654;2022-07-18T15:30:15;4.10;;;0.70;;
40433;SDS011;26146;51.114;5.654;2022-07-18T15:34:18;4.00;;;0.70;;
40433;SDS011;26146;51.114;5.654;2022-07-18T15:38:19;3.97;;;0.80;;
40433;SDS011;26146;51.114;5.654;2022-07-18T15:42:23;3.30;;;0.80;;
40433;SDS011;26146;51.114;5.654;2022-07-18T15:46:24;4.28;;;0.70;;
40433;SDS011;26146;51.114;5.654;2022-07-18T15:50:29;3.38;;;0.82;;
40433;SDS011;26146;51.114;5.654;2022-07-18T15:54:33;4.00;;;0.77;;
40433;SDS011;26146;51.114;5.654;2022-07-18T15:58:37;3.42;;;0.80;;
40433;SDS011;26146;51.114;5.654;2022-07-18T16:06:41;3.45;;;0.75;;
40433;SDS011;26146;51.114;5.654;2022-07-18T16:10:44;2.72;;;0.70;;
40433;SDS011;26146;51.114;5.654;2022-07-18T16:14:45;3.30;;;0.75;;
40433;SDS011;26146;51.114;5.654;2022-07-18T16:18:48;3.75;;;0.80;;
40433;SDS011;26146;51.114;5.654;2022-07-18T16:22:54;3.47;;;0.80;;
40433;SDS011;26146;51.114;5.654;2022-07-18T16:26:55;2.53;;;0.70;;
40433;SDS011;26146;51.114;5.654;2022-07-18T16:30:56;4.00;;;0.80;;
40433;SDS011;26146;51.114;5.654;2022-07-18T16:34:57;2.58;;;0.70;;
40433;SDS011;26146;51.114;5.654;2022-07-18T16:38:58;3.42;;;0.80;;
40433;SDS011;26146;51.114;5.654;2022-07-18T16:42:59;2.42;;;0.65;;
40433;SDS011;26146;51.114;5.654;2022-07-18T16:47:05;3.25;;;0.75;;
40433;SDS011;26146;51.114;5.654;2022-07-18T16:51:07;3.40;;;0.60;;
40433;SDS011;26146;51.114;5.654;2022-07-18T16:55:11;9.77;;;0.98;;
40433;SDS011;26146;51.114;5.654;2022-07-18T16:59:15;2.83;;;0.70;;
40433;SDS011;26146;51.114;5.654;2022-07-18T17:03:22;4.15;;;0.90;;
40433;SDS011;26146;51.114;5.654;2022-07-18T17:07:30;3.38;;;0.80;;
40433;SDS011;26146;51.114;5.654;2022-07-18T17:11:37;4.00;;;0.80;;
40433;SDS011;26146;51.114;5.654;2022-07-18T17:15:38;2.63;;;0.70;;
40433;SDS011;26146;51.114;5.654;2022-07-18T17:19:40;4.38;;;0.80;;
40433;SDS011;26146;51.114;5.654;2022-07-18T17:23:41;3.67;;;0.80;;
40433;SDS011;26146;51.114;5.654;2022-07-18T17:27:42;3.17;;;0.80;;
40433;SDS011;26146;51.114;5.654;2022-07-18T17:31:43;4.32;;;0.82;;
40433;SDS011;26146;51.114;5.654;2022-07-18T17:35:44;2.38;;;0.60;;
40433;SDS011;26146;51.114;5.654;2022-07-18T17:39:48;3.22;;;0.70;;
40433;SDS011;26146;51.114;5.654;2022-07-18T17:43:53;5.88;;;1.15;;
40433;SDS011;26146;51.114;5.654;2022-07-18T17:47:54;3.75;;;0.70;;
40433;SDS011;26146;51.114;5.654;2022-07-18T17:51:57;3.22;;;0.65;;
40433;SDS011;26146;51.114;5.654;2022-07-18T17:55:59;2.55;;;0.70;;
40433;SDS011;26146;51.114;5.654;2022-07-18T18:00:04;3.55;;;0.80;;
40433;SDS011;26146;51.114;5.654;2022-07-18T18:04:09;3.67;;;0.80;;
40433;SDS011;26146;51.114;5.654;2022-07-18T18:08:10;3.00;;;0.80;;
40433;SDS011;26146;51.114;5.654;2022-07-18T18:12:17;4.40;;;0.88;;
40433;SDS011;26146;51.114;5.654;2022-07-18T18:16:20;3.55;;;0.80;;
40433;SDS011;26146;51.114;5.654;2022-07-18T18:20:21;4.60;;;0.93;;
40433;SDS011;26146;51.114;5.654;2022-07-18T18:24:22;4.30;;;0.88;;
40433;SDS011;26146;51.114;5.654;2022-07-18T18:28:23;4.40;;;1.00;;
40433;SDS011;26146;51.114;5.654;2022-07-18T18:32:24;4.60;;;0.98;;
40433;SDS011;26146;51.114;5.654;2022-07-18T18:36:25;6.95;;;1.10;;
40433;SDS011;26146;51.114;5.654;2022-07-18T18:40:46;3.72;;;0.90;;
40433;SDS011;26146;51.114;5.654;2022-07-18T18:44:50;3.63;;;0.80;;
40433;SDS011;26146;51.114;5.654;2022-07-18T18:48:51;6.25;;;1.10;;
40433;SDS011;26146;51.114;5.654;2022-07-18T18:52:54;4.15;;;1.23;;
40433;SDS011;26146;51.114;5.654;2022-07-18T18:56:57;5.45;;;1.05;;
40433;SDS011;26146;51.114;5.654;2022-07-18T19:01:00;7.20;;;1.50;;
40433;SDS011;26146;51.114;5.654;2022-07-18T19:05:01;7.75;;;1.70;;
40433;SDS011;26146;51.114;5.654;2022-07-18T19:09:05;9.35;;;2.58;;
40433;SDS011;26146;51.114;5.654;2022-07-18T19:13:09;5.57;;;1.58;;
40433;SDS011;26146;51.114;5.654;2022-07-18T19:21:14;5.72;;;1.60;;
40433;SDS011;26146;51.114;5.654;2022-07-18T19:25:18;7.57;;;1.40;;
40433;SDS011;26146;51.114;5.654;2022-07-18T19:29:24;5.65;;;1.80;;
40433;SDS011;26146;51.114;5.654;2022-07-18T19:33:28;6.50;;;1.38;;
40433;SDS011;26146;51.114;5.654;2022-07-18T19:37:29;5.15;;;1.10;;
40433;SDS011;26146;51.114;5.654;2022-07-18T19:41:30;6.53;;;1.13;;
40433;SDS011;26146;51.114;5.654;2022-07-18T19:45:31;4.00;;;1.10;;
40433;SDS011;26146;51.114;5.654;2022-07-18T19:49:32;5.80;;;1.20;;
40433;SDS011;26146;51.114;5.654;2022-07-18T19:53:33;5.95;;;1.25;;
40433;SDS011;26146;51.114;5.654;2022-07-18T19:57:34;6.72;;;1.48;;
40433;SDS011;26146;51.114;5.654;2022-07-18T20:01:35;5.35;;;1.42;;
40433;SDS011;26146;51.114;5.654;2022-07-18T20:05:36;6.05;;;1.33;;
40433;SDS011;26146;51.114;5.654;2022-07-18T20:09:37;5.03;;;1.23;;
40433;SDS011;26146;51.114;5.654;2022-07-18T20:13:38;5.70;;;1.40;;
40433;SDS011;26146;51.114;5.654;2022-07-18T20:17:39;7.60;;;2.10;;
40433;SDS011;26146;51.114;5.654;2022-07-18T20:21:40;6.28;;;1.90;;
40433;SDS011;26146;51.114;5.654;2022-07-18T20:25:41;5.45;;;1.30;;
40433;SDS011;26146;51.114;5.654;2022-07-18T20:29:42;5.72;;;1.40;;
40433;SDS011;26146;51.114;5.654;2022-07-18T20:33:43;6.15;;;1.20;;
40433;SDS011;26146;51.114;5.654;2022-07-18T20:37:49;4.80;;;1.23;;
40433;SDS011;26146;51.114;5.654;2022-07-18T20:41:52;5.13;;;1.38;;
40433;SDS011;26146;51.114;5.654;2022-07-18T20:45:53;6.20;;;1.55;;
40433;SDS011;26146;51.114;5.654;2022-07-18T20:49:54;5.95;;;1.73;;
40433;SDS011;26146;51.114;5.654;2022-07-18T20:53:55;6.32;;;1.50;;
40433;SDS011;26146;51.114;5.654;2022-07-18T20:57:56;7.82;;;1.80;;
40433;SDS011;26146;51.114;5.654;2022-07-18T21:01:57;5.85;;;1.50;;
40433;SDS011;26146;51.114;5.654;2022-07-18T21:05:58;5.38;;;1.30;;
40433;SDS011;26146;51.114;5.654;2022-07-18T21:09:59;6.25;;;1.55;;
40433;SDS011;26146;51.114;5.654;2022-07-18T21:13:59;5.53;;;1.77;;
40433;SDS011;26146;51.114;5.654;2022-07-18T21:18:20;6.43;;;1.60;;
40433;SDS011;26146;51.114;5.654;2022-07-18T21:22:22;5.30;;;1.40;;
40433;SDS011;26146;51.114;5.654;2022-07-18T21:26:23;6.18;;;1.50;;
40433;SDS011;26146;51.114;5.654;2022-07-18T21:30:24;4.38;;;1.40;;
40433;SDS011;26146;51.114;5.654;2022-07-18T21:34:25;7.53;;;1.50;;
40433;SDS011;26146;51.114;5.654;2022-07-18T21:38:28;6.30;;;1.63;;
40433;SDS011;26146;51.114;5.654;2022-07-18T21:42:29;5.75;;;1.40;;
40433;SDS011;26146;51.114;5.654;2022-07-18T21:46:31;5.95;;;1.80;;
40433;SDS011;26146;51.114;5.654;2022-07-18T21:50:32;7.65;;;1.60;;
40433;SDS011;26146;51.114;5.654;2022-07-18T21:54:34;9.07;;;1.80;;
40433;SDS011;26146;51.114;5.654;2022-07-18T21:58:34;6.13;;;1.40;;
40433;SDS011;26146;51.114;5.654;2022-07-18T22:02:35;5.15;;;1.33;;
40433;SDS011;26146;51.114;5.654;2022-07-18T22:06:37;4.93;;;1.60;;
40433;SDS011;26146;51.114;5.654;2022-07-18T22:10:38;5.65;;;1.50;;
40433;SDS011;26146;51.114;5.654;2022-07-18T22:14:39;6.30;;;1.77;;
40433;SDS011;26146;51.114;5.654;2022-07-18T22:18:40;6.82;;;2.20;;
40433;SDS011;26146;51.114;5.654;2022-07-18T22:22:42;4.97;;;1.50;;
40433;SDS011;26146;51.114;5.654;2022-07-18T22:26:44;6.05;;;1.60;;
40433;SDS011;26146;51.114;5.654;2022-07-18T22:30:45;5.68;;;1.50;;
40433;SDS011;26146;51.114;5.654;2022-07-18T22:34:45;4.68;;;1.30;;
40433;SDS011;26146;51.114;5.654;2022-07-18T22:38:46;5.85;;;1.60;;
40433;SDS011;26146;51.114;5.654;2022-07-18T22:42:48;5.25;;;1.52;;
40433;SDS011;26146;51.114;5.654;2022-07-18T22:46:49;5.90;;;1.80;;
40433;SDS011;26146;51.114;5.654;2022-07-18T22:50:50;5.78;;;1.52;;
40433;SDS011;26146;51.114;5.654;2022-07-18T22:54:51;6.15;;;1.50;;
40433;SDS011;26146;51.114;5.654;2022-07-18T22:58:52;5.38;;;1.52;;
40433;SDS011;26146;51.114;5.654;2022-07-18T23:02:53;6.30;;;1.70;;
40433;SDS011;26146;51.114;5.654;2022-07-18T23:06:53;4.80;;;1.50;;
40433;SDS011;26146;51.114;5.654;2022-07-18T23:10:57;6.40;;;1.55;;
40433;SDS011;26146;51.114;5.654;2022-07-18T23:14:59;6.97;;;1.90;;
40433;SDS011;26146;51.114;5.654;2022-07-18T23:19:00;5.28;;;1.73;;
40433;SDS011;26146;51.114;5.654;2022-07-18T23:23:01;5.57;;;1.58;;
40433;SDS011;26146;51.114;5.654;2022-07-18T23:27:02;6.65;;;1.65;;
40433;SDS011;26146;51.114;5.654;2022-07-18T23:31:03;7.20;;;1.83;;
40433;SDS011;26146;51.114;5.654;2022-07-18T23:35:04;6.82;;;1.77;;
40433;SDS011;26146;51.114;5.654;2022-07-18T23:39:06;6.00;;;1.70;;
40433;SDS011;26146;51.114;5.654;2022-07-18T23:43:07;6.93;;;2.20;;
40433;SDS011;26146;51.114;5.654;2022-07-18T23:47:08;5.05;;;1.77;;
40433;SDS011;26146;51.114;5.654;2022-07-18T23:51:11;5.78;;;1.83;;
40433;SDS011;26146;51.114;5.654;2022-07-18T23:55:12;6.10;;;1.70;;
40433;SDS011;26146;51.114;5.654;2022-07-18T23:59:14;5.53;;;1.65;;
